sensor_id;sensor_type;location;lat;lon;timestamp;temperature;humidity
9943;DHT22;5010;45.080;7.634;2023-05-10T00:01:29;24.40;1.00
9943;DHT22;5010;45.080;7.634;2023-05-10T00:03:55;24.40;1.00
9943;DHT22;5010;45.080;7.634;2023-05-10T00:06:22;24.40;1.00
9943;DHT22;5010;45.080;7.634;2023-05-10T00:08:49;24.30;1.00
9943;DHT22;5010;45.080;7.634;2023-05-10T00:11:17;24.30;1.00
9943;DHT22;5010;45.080;7.634;2023-05-10T00:13:44;24.30;1.00
9943;DHT22;5010;45.080;7.634;2023-05-10T00:16:11;24.30;1.00
9943;DHT22;5010;45.080;7.634;2023-05-10T00:18:38;24.30;1.00
9943;DHT22;5010;45.080;7.634;2023-05-10T00:21:05;24.30;1.00
9943;DHT22;5010;45.080;7.634;2023-05-10T00:23:32;24.30;1.00
9943;DHT22;5010;45.080;7.634;2023-05-10T00:25:59;24.30;1.00
9943;DHT22;5010;45.080;7.634;2023-05-10T00:28:28;24.30;1.00
9943;DHT22;5010;45.080;7.634;2023-05-10T00:30:56;24.30;1.00
9943;DHT22;5010;45.080;7.634;2023-05-10T00:33:23;24.30;1.00
9943;DHT22;5010;45.080;7.634;2023-05-10T00:35:49;24.30;1.00
9943;DHT22;5010;45.080;7.634;2023-05-10T00:38:17;24.30;1.00
9943;DHT22;5010;45.080;7.634;2023-05-10T00:40:43;24.30;1.00
9943;DHT22;5010;45.080;7.634;2023-05-10T00:43:10;24.30;1.00
9943;DHT22;5010;45.080;7.634;2023-05-10T00:45:40;24.30;1.00
9943;DHT22;5010;45.080;7.634;2023-05-10T00:48:07;24.30;1.00
9943;DHT22;5010;45.080;7.634;2023-05-10T00:50:34;24.20;1.00
9943;DHT22;5010;45.080;7.634;2023-05-10T00:53:01;24.20;1.00
9943;DHT22;5010;45.080;7.634;2023-05-10T00:55:29;24.20;1.00
9943;DHT22;5010;45.080;7.634;2023-05-10T00:57:56;24.20;1.00
9943;DHT22;5010;45.080;7.634;2023-05-10T01:00:23;24.20;1.00
9943;DHT22;5010;45.080;7.634;2023-05-10T01:02:53;24.20;1.00
9943;DHT22;5010;45.080;7.634;2023-05-10T01:05:20;24.20;1.00
9943;DHT22;5010;45.080;7.634;2023-05-10T01:07:47;24.20;1.00
9943;DHT22;5010;45.080;7.634;2023-05-10T01:10:14;24.20;1.00
9943;DHT22;5010;45.080;7.634;2023-05-10T01:12:43;24.20;1.00
9943;DHT22;5010;45.080;7.634;2023-05-10T01:15:12;24.20;1.00
9943;DHT22;5010;45.080;7.634;2023-05-10T01:17:42;24.20;1.00
9943;DHT22;5010;45.080;7.634;2023-05-10T01:20:12;24.20;1.00
9943;DHT22;5010;45.080;7.634;2023-05-10T01:22:59;24.20;1.00
9943;DHT22;5010;45.080;7.634;2023-05-10T01:25:55;24.20;1.00
9943;DHT22;5010;45.080;7.634;2023-05-10T01:28:47;24.20;1.00
9943;DHT22;5010;45.080;7.634;2023-05-10T01:31:30;24.10;1.00
9943;DHT22;5010;45.080;7.634;2023-05-10T01:34:07;24.10;1.00
9943;DHT22;5010;45.080;7.634;2023-05-10T01:36:42;24.10;1.00
9943;DHT22;5010;45.080;7.634;2023-05-10T01:39:17;24.10;1.00
9943;DHT22;5010;45.080;7.634;2023-05-10T01:41:51;24.10;1.00
9943;DHT22;5010;45.080;7.634;2023-05-10T01:44:27;24.10;1.00
9943;DHT22;5010;45.080;7.634;2023-05-10T01:47:01;24.10;1.00
9943;DHT22;5010;45.080;7.634;2023-05-10T01:49:32;24.10;1.00
9943;DHT22;5010;45.080;7.634;2023-05-10T01:52:06;24.10;1.00
9943;DHT22;5010;45.080;7.634;2023-05-10T01:54:35;24.10;1.00
9943;DHT22;5010;45.080;7.634;2023-05-10T01:57:06;24.10;1.00
9943;DHT22;5010;45.080;7.634;2023-05-10T01:59:36;24.10;1.00
9943;DHT22;5010;45.080;7.634;2023-05-10T02:02:07;24.10;1.00
9943;DHT22;5010;45.080;7.634;2023-05-10T02:04:39;24.10;1.00
9943;DHT22;5010;45.080;7.634;2023-05-10T02:07:07;24.10;1.00
9943;DHT22;5010;45.080;7.634;2023-05-10T02:09:35;24.10;1.00
9943;DHT22;5010;45.080;7.634;2023-05-10T02:12:04;24.10;1.00
9943;DHT22;5010;45.080;7.634;2023-05-10T02:14:35;24.00;1.00
9943;DHT22;5010;45.080;7.634;2023-05-10T02:17:04;24.10;1.00
9943;DHT22;5010;45.080;7.634;2023-05-10T02:19:32;24.00;1.00
9943;DHT22;5010;45.080;7.634;2023-05-10T02:22:03;24.10;1.00
9943;DHT22;5010;45.080;7.634;2023-05-10T02:24:32;24.10;1.00
9943;DHT22;5010;45.080;7.634;2023-05-10T02:27:00;24.10;1.00
9943;DHT22;5010;45.080;7.634;2023-05-10T02:29:29;24.00;1.00
9943;DHT22;5010;45.080;7.634;2023-05-10T02:31:57;24.00;1.00
9943;DHT22;5010;45.080;7.634;2023-05-10T02:34:26;24.00;1.00
9943;DHT22;5010;45.080;7.634;2023-05-10T02:36:54;24.00;1.00
9943;DHT22;5010;45.080;7.634;2023-05-10T02:39:23;24.00;1.00
9943;DHT22;5010;45.080;7.634;2023-05-10T02:41:52;24.00;1.00
9943;DHT22;5010;45.080;7.634;2023-05-10T02:44:22;24.00;1.00
9943;DHT22;5010;45.080;7.634;2023-05-10T02:46:50;24.00;1.00
9943;DHT22;5010;45.080;7.634;2023-05-10T02:49:18;24.00;1.00
9943;DHT22;5010;45.080;7.634;2023-05-10T02:51:50;24.00;1.00
9943;DHT22;5010;45.080;7.634;2023-05-10T02:54:19;24.00;1.00
9943;DHT22;5010;45.080;7.634;2023-05-10T02:56:51;24.00;1.00
9943;DHT22;5010;45.080;7.634;2023-05-10T02:59:20;24.00;1.00
9943;DHT22;5010;45.080;7.634;2023-05-10T03:01:47;24.00;1.00
9943;DHT22;5010;45.080;7.634;2023-05-10T03:04:14;24.00;1.00
9943;DHT22;5010;45.080;7.634;2023-05-10T03:06:41;24.00;99.90
9943;DHT22;5010;45.080;7.634;2023-05-10T03:09:08;24.00;99.90
9943;DHT22;5010;45.080;7.634;2023-05-10T03:11:47;24.00;99.90
9943;DHT22;5010;45.080;7.634;2023-05-10T03:14:29;24.00;99.90
9943;DHT22;5010;45.080;7.634;2023-05-10T03:17:08;24.00;99.90
9943;DHT22;5010;45.080;7.634;2023-05-10T03:19:42;24.00;99.90
9943;DHT22;5010;45.080;7.634;2023-05-10T03:22:11;24.00;99.90
9943;DHT22;5010;45.080;7.634;2023-05-10T03:24:41;24.00;99.90
9943;DHT22;5010;45.080;7.634;2023-05-10T03:27:08;24.00;99.90
9943;DHT22;5010;45.080;7.634;2023-05-10T03:29:38;24.00;99.90
9943;DHT22;5010;45.080;7.634;2023-05-10T03:32:05;24.00;99.90
9943;DHT22;5010;45.080;7.634;2023-05-10T03:34:33;24.00;99.90
9943;DHT22;5010;45.080;7.634;2023-05-10T03:37:01;24.00;99.90
9943;DHT22;5010;45.080;7.634;2023-05-10T03:39:28;23.90;99.90
9943;DHT22;5010;45.080;7.634;2023-05-10T03:41:55;24.00;99.90
9943;DHT22;5010;45.080;7.634;2023-05-10T03:46:56;23.90;99.90
9943;DHT22;5010;45.080;7.634;2023-05-10T03:49:23;24.00;99.90
9943;DHT22;5010;45.080;7.634;2023-05-10T03:51:50;23.90;99.90
9943;DHT22;5010;45.080;7.634;2023-05-10T03:54:17;24.00;99.90
9943;DHT22;5010;45.080;7.634;2023-05-10T03:56:43;24.00;99.90
9943;DHT22;5010;45.080;7.634;2023-05-10T03:59:12;23.90;99.90
9943;DHT22;5010;45.080;7.634;2023-05-10T04:01:38;23.90;99.90
9943;DHT22;5010;45.080;7.634;2023-05-10T04:04:07;23.90;95.70
9943;DHT22;5010;45.080;7.634;2023-05-10T04:06:33;23.90;26.70
9943;DHT22;5010;45.080;7.634;2023-05-10T04:09:00;23.90;1.00
9943;DHT22;5010;45.080;7.634;2023-05-10T04:11:29;23.90;1.00
9943;DHT22;5010;45.080;7.634;2023-05-10T04:13:56;23.90;1.00
9943;DHT22;5010;45.080;7.634;2023-05-10T04:16:23;23.90;1.00
9943;DHT22;5010;45.080;7.634;2023-05-10T04:18:50;23.90;3.00
9943;DHT22;5010;45.080;7.634;2023-05-10T04:21:18;23.90;4.70
9943;DHT22;5010;45.080;7.634;2023-05-10T04:23:45;23.90;2.00
9943;DHT22;5010;45.080;7.634;2023-05-10T04:26:12;23.90;2.60
9943;DHT22;5010;45.080;7.634;2023-05-10T04:28:39;23.90;4.20
9943;DHT22;5010;45.080;7.634;2023-05-10T04:31:08;23.90;4.00
9943;DHT22;5010;45.080;7.634;2023-05-10T04:33:35;23.90;1.00
9943;DHT22;5010;45.080;7.634;2023-05-10T04:36:03;23.90;1.00
9943;DHT22;5010;45.080;7.634;2023-05-10T04:38:31;23.90;1.00
9943;DHT22;5010;45.080;7.634;2023-05-10T04:41:04;23.90;1.00
9943;DHT22;5010;45.080;7.634;2023-05-10T04:43:32;23.90;1.00
9943;DHT22;5010;45.080;7.634;2023-05-10T04:45:59;23.80;1.00
9943;DHT22;5010;45.080;7.634;2023-05-10T04:48:26;23.90;1.00
9943;DHT22;5010;45.080;7.634;2023-05-10T04:50:53;23.90;1.00
9943;DHT22;5010;45.080;7.634;2023-05-10T04:53:19;23.90;1.00
9943;DHT22;5010;45.080;7.634;2023-05-10T04:55:48;23.80;1.00
9943;DHT22;5010;45.080;7.634;2023-05-10T04:58:15;23.80;1.00
9943;DHT22;5010;45.080;7.634;2023-05-10T05:00:42;23.80;1.00
9943;DHT22;5010;45.080;7.634;2023-05-10T05:03:09;23.80;1.00
9943;DHT22;5010;45.080;7.634;2023-05-10T05:05:36;23.80;1.00
9943;DHT22;5010;45.080;7.634;2023-05-10T05:08:03;23.80;1.00
9943;DHT22;5010;45.080;7.634;2023-05-10T05:10:30;23.80;1.00
9943;DHT22;5010;45.080;7.634;2023-05-10T05:12:59;23.80;1.00
9943;DHT22;5010;45.080;7.634;2023-05-10T05:15:25;23.80;1.00
9943;DHT22;5010;45.080;7.634;2023-05-10T05:17:52;23.80;1.00
9943;DHT22;5010;45.080;7.634;2023-05-10T05:20:20;23.80;1.00
9943;DHT22;5010;45.080;7.634;2023-05-10T05:22:46;23.80;1.00
9943;DHT22;5010;45.080;7.634;2023-05-10T05:25:13;23.80;1.00
9943;DHT22;5010;45.080;7.634;2023-05-10T05:27:41;23.80;1.00
9943;DHT22;5010;45.080;7.634;2023-05-10T05:30:10;23.80;1.00
9943;DHT22;5010;45.080;7.634;2023-05-10T05:32:38;23.80;1.00
9943;DHT22;5010;45.080;7.634;2023-05-10T05:35:05;23.80;1.00
9943;DHT22;5010;45.080;7.634;2023-05-10T05:37:32;23.80;1.00
9943;DHT22;5010;45.080;7.634;2023-05-10T05:39:59;23.80;1.00
9943;DHT22;5010;45.080;7.634;2023-05-10T05:42:27;23.80;1.00
9943;DHT22;5010;45.080;7.634;2023-05-10T05:44:54;23.80;1.00
9943;DHT22;5010;45.080;7.634;2023-05-10T05:47:22;23.80;1.00
9943;DHT22;5010;45.080;7.634;2023-05-10T05:49:49;23.80;1.00
9943;DHT22;5010;45.080;7.634;2023-05-10T05:52:16;23.80;1.00
9943;DHT22;5010;45.080;7.634;2023-05-10T05:54:43;23.80;1.00
9943;DHT22;5010;45.080;7.634;2023-05-10T05:57:10;23.80;1.00
9943;DHT22;5010;45.080;7.634;2023-05-10T05:59:37;23.80;1.00
9943;DHT22;5010;45.080;7.634;2023-05-10T06:02:07;23.80;1.00
9943;DHT22;5010;45.080;7.634;2023-05-10T06:04:35;23.80;1.00
9943;DHT22;5010;45.080;7.634;2023-05-10T06:07:02;23.80;1.00
9943;DHT22;5010;45.080;7.634;2023-05-10T06:09:29;23.80;1.00
9943;DHT22;5010;45.080;7.634;2023-05-10T06:11:56;23.80;1.00
9943;DHT22;5010;45.080;7.634;2023-05-10T06:14:23;23.80;1.00
9943;DHT22;5010;45.080;7.634;2023-05-10T06:16:53;23.80;1.00
9943;DHT22;5010;45.080;7.634;2023-05-10T06:19:20;23.80;1.00
9943;DHT22;5010;45.080;7.634;2023-05-10T06:21:49;23.80;1.00
9943;DHT22;5010;45.080;7.634;2023-05-10T06:24:16;23.80;1.00
9943;DHT22;5010;45.080;7.634;2023-05-10T06:26:43;23.80;1.00
9943;DHT22;5010;45.080;7.634;2023-05-10T06:29:09;23.80;1.00
9943;DHT22;5010;45.080;7.634;2023-05-10T06:31:37;23.80;1.00
9943;DHT22;5010;45.080;7.634;2023-05-10T06:34:03;23.80;1.00
9943;DHT22;5010;45.080;7.634;2023-05-10T06:36:32;23.70;1.00
9943;DHT22;5010;45.080;7.634;2023-05-10T06:39:00;23.70;1.00
9943;DHT22;5010;45.080;7.634;2023-05-10T06:41:27;23.70;1.00
9943;DHT22;5010;45.080;7.634;2023-05-10T06:43:54;23.70;1.00
9943;DHT22;5010;45.080;7.634;2023-05-10T06:46:21;23.70;1.00
9943;DHT22;5010;45.080;7.634;2023-05-10T06:48:48;23.70;1.00
9943;DHT22;5010;45.080;7.634;2023-05-10T06:51:15;23.70;1.00
9943;DHT22;5010;45.080;7.634;2023-05-10T06:53:42;23.70;1.00
9943;DHT22;5010;45.080;7.634;2023-05-10T06:56:10;23.70;1.00
9943;DHT22;5010;45.080;7.634;2023-05-10T06:58:37;23.70;1.00
9943;DHT22;5010;45.080;7.634;2023-05-10T07:01:04;23.70;1.00
9943;DHT22;5010;45.080;7.634;2023-05-10T07:03:31;23.70;1.00
9943;DHT22;5010;45.080;7.634;2023-05-10T07:06:01;23.70;1.00
9943;DHT22;5010;45.080;7.634;2023-05-10T07:08:30;23.80;1.00
9943;DHT22;5010;45.080;7.634;2023-05-10T07:11:00;23.80;1.00
9943;DHT22;5010;45.080;7.634;2023-05-10T07:13:30;23.70;1.00
9943;DHT22;5010;45.080;7.634;2023-05-10T07:15:57;23.70;1.00
9943;DHT22;5010;45.080;7.634;2023-05-10T07:18:25;23.70;1.00
9943;DHT22;5010;45.080;7.634;2023-05-10T07:20:52;23.70;1.00
9943;DHT22;5010;45.080;7.634;2023-05-10T07:23:19;23.70;1.00
9943;DHT22;5010;45.080;7.634;2023-05-10T07:25:46;23.70;1.00
9943;DHT22;5010;45.080;7.634;2023-05-10T07:28:13;23.70;99.90
9943;DHT22;5010;45.080;7.634;2023-05-10T07:30:41;23.70;99.90
9943;DHT22;5010;45.080;7.634;2023-05-10T07:33:09;23.70;99.90
9943;DHT22;5010;45.080;7.634;2023-05-10T07:35:36;23.70;99.90
9943;DHT22;5010;45.080;7.634;2023-05-10T07:38:03;23.70;99.90
9943;DHT22;5010;45.080;7.634;2023-05-10T07:40:30;23.70;99.90
9943;DHT22;5010;45.080;7.634;2023-05-10T07:42:57;23.70;99.90
9943;DHT22;5010;45.080;7.634;2023-05-10T07:45:25;23.70;99.90
9943;DHT22;5010;45.080;7.634;2023-05-10T07:47:53;23.70;99.90
9943;DHT22;5010;45.080;7.634;2023-05-10T07:50:20;23.70;99.90
9943;DHT22;5010;45.080;7.634;2023-05-10T07:52:47;23.70;99.90
9943;DHT22;5010;45.080;7.634;2023-05-10T07:55:14;23.60;99.90
9943;DHT22;5010;45.080;7.634;2023-05-10T07:57:42;23.60;99.90
9943;DHT22;5010;45.080;7.634;2023-05-10T08:00:15;23.60;99.90
9943;DHT22;5010;45.080;7.634;2023-05-10T08:02:43;23.60;99.90
9943;DHT22;5010;45.080;7.634;2023-05-10T08:05:11;23.70;99.90
9943;DHT22;5010;45.080;7.634;2023-05-10T08:07:38;23.60;99.90
9943;DHT22;5010;45.080;7.634;2023-05-10T08:10:07;23.60;99.90
9943;DHT22;5010;45.080;7.634;2023-05-10T08:12:34;23.60;99.90
9943;DHT22;5010;45.080;7.634;2023-05-10T08:15:01;23.70;99.90
9943;DHT22;5010;45.080;7.634;2023-05-10T08:17:28;23.70;99.90
9943;DHT22;5010;45.080;7.634;2023-05-10T08:19:55;23.70;99.90
9943;DHT22;5010;45.080;7.634;2023-05-10T08:22:23;23.60;99.90
9943;DHT22;5010;45.080;7.634;2023-05-10T08:24:50;23.60;99.90
9943;DHT22;5010;45.080;7.634;2023-05-10T08:27:17;23.60;99.90
9943;DHT22;5010;45.080;7.634;2023-05-10T08:29:44;23.70;99.90
9943;DHT22;5010;45.080;7.634;2023-05-10T08:32:11;23.60;99.90
9943;DHT22;5010;45.080;7.634;2023-05-10T08:34:38;23.60;99.90
9943;DHT22;5010;45.080;7.634;2023-05-10T08:37:04;23.70;1.00
9943;DHT22;5010;45.080;7.634;2023-05-10T08:39:35;23.70;1.00
9943;DHT22;5010;45.080;7.634;2023-05-10T08:42:04;23.70;1.00
9943;DHT22;5010;45.080;7.634;2023-05-10T08:44:32;23.70;1.00
9943;DHT22;5010;45.080;7.634;2023-05-10T08:46:59;23.70;1.00
9943;DHT22;5010;45.080;7.634;2023-05-10T08:49:30;23.70;1.00
9943;DHT22;5010;45.080;7.634;2023-05-10T08:51:59;23.70;1.00
9943;DHT22;5010;45.080;7.634;2023-05-10T08:54:28;23.70;1.00
9943;DHT22;5010;45.080;7.634;2023-05-10T08:56:57;23.70;1.00
9943;DHT22;5010;45.080;7.634;2023-05-10T08:59:24;23.70;1.00
9943;DHT22;5010;45.080;7.634;2023-05-10T09:01:51;23.70;1.00
9943;DHT22;5010;45.080;7.634;2023-05-10T09:04:19;23.70;1.00
9943;DHT22;5010;45.080;7.634;2023-05-10T09:06:47;23.70;1.00
9943;DHT22;5010;45.080;7.634;2023-05-10T09:09:14;23.70;1.00
9943;DHT22;5010;45.080;7.634;2023-05-10T09:11:42;23.70;1.00
9943;DHT22;5010;45.080;7.634;2023-05-10T09:14:12;23.70;1.00
9943;DHT22;5010;45.080;7.634;2023-05-10T09:16:40;23.70;99.90
9943;DHT22;5010;45.080;7.634;2023-05-10T09:19:07;23.70;99.90
9943;DHT22;5010;45.080;7.634;2023-05-10T09:21:35;23.60;99.90
9943;DHT22;5010;45.080;7.634;2023-05-10T09:24:04;23.60;99.90
9943;DHT22;5010;45.080;7.634;2023-05-10T09:26:31;23.50;99.90
9943;DHT22;5010;45.080;7.634;2023-05-10T09:29:00;23.50;99.90
9943;DHT22;5010;45.080;7.634;2023-05-10T09:31:44;23.50;99.90
9943;DHT22;5010;45.080;7.634;2023-05-10T09:34:16;23.50;99.90
9943;DHT22;5010;45.080;7.634;2023-05-10T09:36:53;23.50;99.90
9943;DHT22;5010;45.080;7.634;2023-05-10T09:39:20;23.50;99.90
9943;DHT22;5010;45.080;7.634;2023-05-10T09:41:47;23.40;1.00
9943;DHT22;5010;45.080;7.634;2023-05-10T09:44:17;23.40;1.00
9943;DHT22;5010;45.080;7.634;2023-05-10T09:46:50;23.10;1.00
9943;DHT22;5010;45.080;7.634;2023-05-10T09:49:18;22.90;1.00
9943;DHT22;5010;45.080;7.634;2023-05-10T09:51:45;22.80;1.00
9943;DHT22;5010;45.080;7.634;2023-05-10T09:54:13;22.60;1.00
9943;DHT22;5010;45.080;7.634;2023-05-10T09:56:40;22.50;1.00
9943;DHT22;5010;45.080;7.634;2023-05-10T09:59:09;22.60;1.00
9943;DHT22;5010;45.080;7.634;2023-05-10T10:01:37;22.60;1.00
9943;DHT22;5010;45.080;7.634;2023-05-10T10:04:08;22.60;1.00
9943;DHT22;5010;45.080;7.634;2023-05-10T10:06:36;22.60;1.00
9943;DHT22;5010;45.080;7.634;2023-05-10T10:09:04;22.70;1.00
9943;DHT22;5010;45.080;7.634;2023-05-10T10:11:33;22.70;1.00
9943;DHT22;5010;45.080;7.634;2023-05-10T10:14:00;22.70;1.00
9943;DHT22;5010;45.080;7.634;2023-05-10T10:16:29;22.80;1.00
9943;DHT22;5010;45.080;7.634;2023-05-10T10:18:56;22.80;1.00
9943;DHT22;5010;45.080;7.634;2023-05-10T10:21:24;22.80;1.00
9943;DHT22;5010;45.080;7.634;2023-05-10T10:23:51;22.80;1.00
9943;DHT22;5010;45.080;7.634;2023-05-10T10:26:19;22.80;1.00
9943;DHT22;5010;45.080;7.634;2023-05-10T10:28:51;22.80;1.00
9943;DHT22;5010;45.080;7.634;2023-05-10T10:31:27;22.80;1.00
9943;DHT22;5010;45.080;7.634;2023-05-10T10:34:00;22.90;1.00
9943;DHT22;5010;45.080;7.634;2023-05-10T10:36:29;22.90;1.00
9943;DHT22;5010;45.080;7.634;2023-05-10T10:38:59;22.90;1.00
9943;DHT22;5010;45.080;7.634;2023-05-10T10:41:33;22.90;1.00
9943;DHT22;5010;45.080;7.634;2023-05-10T10:47:06;22.90;1.00
9943;DHT22;5010;45.080;7.634;2023-05-10T10:49:43;22.90;1.00
9943;DHT22;5010;45.080;7.634;2023-05-10T10:52:24;22.90;1.00
9943;DHT22;5010;45.080;7.634;2023-05-10T10:54:59;22.90;1.00
9943;DHT22;5010;45.080;7.634;2023-05-10T10:57:27;22.90;1.00
9943;DHT22;5010;45.080;7.634;2023-05-10T11:00:23;22.90;1.00
9943;DHT22;5010;45.080;7.634;2023-05-10T11:02:52;22.90;1.00
9943;DHT22;5010;45.080;7.634;2023-05-10T11:05:33;23.00;1.00
9943;DHT22;5010;45.080;7.634;2023-05-10T11:08:18;23.00;1.00
9943;DHT22;5010;45.080;7.634;2023-05-10T11:11:06;23.00;1.00
9943;DHT22;5010;45.080;7.634;2023-05-10T11:13:39;23.00;1.00
9943;DHT22;5010;45.080;7.634;2023-05-10T11:16:19;23.10;1.00
9943;DHT22;5010;45.080;7.634;2023-05-10T11:19:01;23.10;1.00
9943;DHT22;5010;45.080;7.634;2023-05-10T11:21:28;23.10;1.00
9943;DHT22;5010;45.080;7.634;2023-05-10T11:23:58;23.10;1.00
9943;DHT22;5010;45.080;7.634;2023-05-10T11:26:30;23.10;1.00
9943;DHT22;5010;45.080;7.634;2023-05-10T11:28:58;23.20;1.00
9943;DHT22;5010;45.080;7.634;2023-05-10T11:31:26;23.20;1.00
9943;DHT22;5010;45.080;7.634;2023-05-10T11:33:54;23.20;1.00
9943;DHT22;5010;45.080;7.634;2023-05-10T11:36:23;23.20;1.00
9943;DHT22;5010;45.080;7.634;2023-05-10T11:38:51;23.30;1.00
9943;DHT22;5010;45.080;7.634;2023-05-10T11:41:20;23.30;1.00
9943;DHT22;5010;45.080;7.634;2023-05-10T11:43:49;23.30;1.00
9943;DHT22;5010;45.080;7.634;2023-05-10T11:46:19;23.30;1.00
9943;DHT22;5010;45.080;7.634;2023-05-10T11:48:48;23.30;1.00
9943;DHT22;5010;45.080;7.634;2023-05-10T11:51:19;23.40;1.00
9943;DHT22;5010;45.080;7.634;2023-05-10T11:53:46;23.40;1.00
9943;DHT22;5010;45.080;7.634;2023-05-10T11:56:13;23.40;1.00
9943;DHT22;5010;45.080;7.634;2023-05-10T11:58:41;23.40;1.00
9943;DHT22;5010;45.080;7.634;2023-05-10T12:01:09;23.40;1.00
9943;DHT22;5010;45.080;7.634;2023-05-10T12:03:36;23.40;1.00
9943;DHT22;5010;45.080;7.634;2023-05-10T12:06:04;23.40;1.00
9943;DHT22;5010;45.080;7.634;2023-05-10T12:08:31;23.40;1.00
9943;DHT22;5010;45.080;7.634;2023-05-10T12:11:05;23.40;1.00
9943;DHT22;5010;45.080;7.634;2023-05-10T12:13:36;23.40;1.00
9943;DHT22;5010;45.080;7.634;2023-05-10T12:16:14;23.50;1.00
9943;DHT22;5010;45.080;7.634;2023-05-10T12:18:42;23.40;99.90
9943;DHT22;5010;45.080;7.634;2023-05-10T12:21:10;23.40;99.90
9943;DHT22;5010;45.080;7.634;2023-05-10T12:23:38;23.40;99.90
9943;DHT22;5010;45.080;7.634;2023-05-10T12:26:05;23.40;99.90
9943;DHT22;5010;45.080;7.634;2023-05-10T12:28:32;23.40;99.90
9943;DHT22;5010;45.080;7.634;2023-05-10T12:30:59;23.40;99.90
9943;DHT22;5010;45.080;7.634;2023-05-10T12:33:35;23.40;99.90
9943;DHT22;5010;45.080;7.634;2023-05-10T12:36:05;23.40;99.90
9943;DHT22;5010;45.080;7.634;2023-05-10T12:38:33;23.40;99.90
9943;DHT22;5010;45.080;7.634;2023-05-10T12:41:01;23.40;99.90
9943;DHT22;5010;45.080;7.634;2023-05-10T12:43:29;23.40;99.90
9943;DHT22;5010;45.080;7.634;2023-05-10T12:45:56;23.40;99.90
9943;DHT22;5010;45.080;7.634;2023-05-10T12:48:23;23.40;99.90
9943;DHT22;5010;45.080;7.634;2023-05-10T12:50:51;23.40;99.90
9943;DHT22;5010;45.080;7.634;2023-05-10T12:53:18;23.40;99.90
9943;DHT22;5010;45.080;7.634;2023-05-10T12:55:45;23.40;99.90
9943;DHT22;5010;45.080;7.634;2023-05-10T12:58:12;23.30;99.90
9943;DHT22;5010;45.080;7.634;2023-05-10T13:00:39;23.30;99.90
9943;DHT22;5010;45.080;7.634;2023-05-10T13:03:06;23.40;99.90
9943;DHT22;5010;45.080;7.634;2023-05-10T13:05:33;23.30;99.90
9943;DHT22;5010;45.080;7.634;2023-05-10T13:08:01;23.30;99.90
9943;DHT22;5010;45.080;7.634;2023-05-10T13:10:29;23.30;99.90
9943;DHT22;5010;45.080;7.634;2023-05-10T13:12:56;23.30;99.90
9943;DHT22;5010;45.080;7.634;2023-05-10T13:15:24;23.30;99.90
9943;DHT22;5010;45.080;7.634;2023-05-10T13:17:51;23.30;99.90
9943;DHT22;5010;45.080;7.634;2023-05-10T13:20:18;23.30;99.90
9943;DHT22;5010;45.080;7.634;2023-05-10T13:22:45;23.30;99.90
9943;DHT22;5010;45.080;7.634;2023-05-10T13:25:13;23.30;99.90
9943;DHT22;5010;45.080;7.634;2023-05-10T13:27:40;23.30;99.90
9943;DHT22;5010;45.080;7.634;2023-05-10T13:30:08;23.40;99.90
9943;DHT22;5010;45.080;7.634;2023-05-10T13:32:35;23.40;99.90
9943;DHT22;5010;45.080;7.634;2023-05-10T13:35:02;23.40;99.90
9943;DHT22;5010;45.080;7.634;2023-05-10T13:37:29;23.40;99.90
9943;DHT22;5010;45.080;7.634;2023-05-10T13:39:56;23.40;99.90
9943;DHT22;5010;45.080;7.634;2023-05-10T13:42:24;23.40;99.90
9943;DHT22;5010;45.080;7.634;2023-05-10T13:44:51;23.40;99.90
9943;DHT22;5010;45.080;7.634;2023-05-10T13:47:18;23.40;99.90
9943;DHT22;5010;45.080;7.634;2023-05-10T13:49:47;23.40;99.90
9943;DHT22;5010;45.080;7.634;2023-05-10T13:52:14;23.40;99.90
9943;DHT22;5010;45.080;7.634;2023-05-10T13:54:41;23.40;94.10
9943;DHT22;5010;45.080;7.634;2023-05-10T13:57:08;23.30;89.20
9943;DHT22;5010;45.080;7.634;2023-05-10T13:59:36;23.30;79.50
9943;DHT22;5010;45.080;7.634;2023-05-10T14:02:03;23.30;79.90
9943;DHT22;5010;45.080;7.634;2023-05-10T14:04:30;23.30;97.50
9943;DHT22;5010;45.080;7.634;2023-05-10T14:06:57;23.30;91.10
9943;DHT22;5010;45.080;7.634;2023-05-10T14:09:24;23.30;94.70
9943;DHT22;5010;45.080;7.634;2023-05-10T14:11:50;23.30;92.90
9943;DHT22;5010;45.080;7.634;2023-05-10T14:14:17;23.30;93.90
9943;DHT22;5010;45.080;7.634;2023-05-10T14:16:45;23.40;92.50
9943;DHT22;5010;45.080;7.634;2023-05-10T14:19:12;23.40;96.30
9943;DHT22;5010;45.080;7.634;2023-05-10T14:21:39;23.40;95.10
9943;DHT22;5010;45.080;7.634;2023-05-10T14:24:06;23.40;91.30
9943;DHT22;5010;45.080;7.634;2023-05-10T14:26:33;23.40;87.90
9943;DHT22;5010;45.080;7.634;2023-05-10T14:29:00;23.40;77.70
9943;DHT22;5010;45.080;7.634;2023-05-10T14:31:27;23.40;71.60
9943;DHT22;5010;45.080;7.634;2023-05-10T14:33:57;23.40;85.80
9943;DHT22;5010;45.080;7.634;2023-05-10T14:36:24;23.40;67.00
9943;DHT22;5010;45.080;7.634;2023-05-10T14:38:51;23.40;68.80
9943;DHT22;5010;45.080;7.634;2023-05-10T14:41:18;23.40;46.50
9943;DHT22;5010;45.080;7.634;2023-05-10T14:43:45;23.40;43.50
9943;DHT22;5010;45.080;7.634;2023-05-10T14:46:12;23.40;53.00
9943;DHT22;5010;45.080;7.634;2023-05-10T14:48:39;23.40;67.10
9943;DHT22;5010;45.080;7.634;2023-05-10T14:51:07;23.40;83.40
9943;DHT22;5010;45.080;7.634;2023-05-10T14:53:34;23.40;99.90
9943;DHT22;5010;45.080;7.634;2023-05-10T14:56:01;23.40;96.50
9943;DHT22;5010;45.080;7.634;2023-05-10T14:58:28;23.50;99.30
9943;DHT22;5010;45.080;7.634;2023-05-10T15:00:55;23.50;99.90
9943;DHT22;5010;45.080;7.634;2023-05-10T15:03:23;23.50;99.90
9943;DHT22;5010;45.080;7.634;2023-05-10T15:05:50;23.50;99.90
9943;DHT22;5010;45.080;7.634;2023-05-10T15:08:18;23.50;99.90
9943;DHT22;5010;45.080;7.634;2023-05-10T15:10:45;23.50;99.90
9943;DHT22;5010;45.080;7.634;2023-05-10T15:13:13;23.50;99.90
9943;DHT22;5010;45.080;7.634;2023-05-10T15:15:40;23.50;99.90
9943;DHT22;5010;45.080;7.634;2023-05-10T15:18:06;23.60;99.90
9943;DHT22;5010;45.080;7.634;2023-05-10T15:20:33;23.50;99.90
9943;DHT22;5010;45.080;7.634;2023-05-10T15:23:00;23.50;99.90
9943;DHT22;5010;45.080;7.634;2023-05-10T15:25:28;23.50;99.90
9943;DHT22;5010;45.080;7.634;2023-05-10T15:27:55;23.60;99.90
9943;DHT22;5010;45.080;7.634;2023-05-10T15:30:22;23.50;99.90
9943;DHT22;5010;45.080;7.634;2023-05-10T15:32:49;23.50;99.90
9943;DHT22;5010;45.080;7.634;2023-05-10T15:35:16;23.50;99.90
9943;DHT22;5010;45.080;7.634;2023-05-10T15:37:43;23.60;99.90
9943;DHT22;5010;45.080;7.634;2023-05-10T15:40:10;23.60;99.90
9943;DHT22;5010;45.080;7.634;2023-05-10T15:42:39;23.60;99.90
9943;DHT22;5010;45.080;7.634;2023-05-10T15:45:07;23.60;99.90
9943;DHT22;5010;45.080;7.634;2023-05-10T15:47:34;23.60;99.90
9943;DHT22;5010;45.080;7.634;2023-05-10T15:50:01;23.60;99.90
9943;DHT22;5010;45.080;7.634;2023-05-10T15:52:28;23.60;99.90
9943;DHT22;5010;45.080;7.634;2023-05-10T15:54:55;23.60;99.90
9943;DHT22;5010;45.080;7.634;2023-05-10T15:57:22;23.60;99.90
9943;DHT22;5010;45.080;7.634;2023-05-10T15:59:52;23.60;99.90
9943;DHT22;5010;45.080;7.634;2023-05-10T16:02:18;23.60;99.90
9943;DHT22;5010;45.080;7.634;2023-05-10T16:04:46;23.60;99.90
9943;DHT22;5010;45.080;7.634;2023-05-10T16:07:14;23.60;99.90
9943;DHT22;5010;45.080;7.634;2023-05-10T16:09:40;23.60;99.90
9943;DHT22;5010;45.080;7.634;2023-05-10T16:12:07;23.60;99.90
9943;DHT22;5010;45.080;7.634;2023-05-10T16:14:34;23.60;99.90
9943;DHT22;5010;45.080;7.634;2023-05-10T16:17:02;23.60;99.90
9943;DHT22;5010;45.080;7.634;2023-05-10T16:19:29;23.60;99.90
9943;DHT22;5010;45.080;7.634;2023-05-10T16:21:56;23.60;99.90
9943;DHT22;5010;45.080;7.634;2023-05-10T16:24:24;23.60;99.90
9943;DHT22;5010;45.080;7.634;2023-05-10T16:26:51;23.60;99.90